createdAt,value
2022-12-25T00:02:18.046Z,18.56
2022-12-25T00:04:46.199Z,18.88
2022-12-25T00:07:14.053Z,18.90
2022-12-25T00:09:42.100Z,18.89
2022-12-25T00:12:11.433Z,18.77
2022-12-25T00:14:39.545Z,19.11
2022-12-25T00:17:07.550Z,18.71
2022-12-25T00:19:35.682Z,19.11
2022-12-25T00:22:03.594Z,18.68
2022-12-25T00:24:31.674Z,18.75
2022-12-25T00:26:59.817Z,19.16
2022-12-25T00:29:29.833Z,19.22
2022-12-25T00:31:57.902Z,18.72
2022-12-25T00:34:25.853Z,18.78
2022-12-25T00:36:53.949Z,18.78
2022-12-25T00:39:21.942Z,18.82
2022-12-25T00:42:07.185Z,19.12
2022-12-25T00:44:36.758Z,18.75
2022-12-25T00:47:05.458Z,18.97
2022-12-25T00:49:33.409Z,19.01
2022-12-25T00:52:01.327Z,18.86
2022-12-25T00:54:29.349Z,18.65
2022-12-25T00:56:57.408Z,18.86
2022-12-25T00:59:25.454Z,18.77
2022-12-25T01:01:55.000Z,18.73
2022-12-25T01:04:23.085Z,18.66
2022-12-25T01:06:51.048Z,18.70
2022-12-25T01:09:36.410Z,18.76
2022-12-25T01:12:04.666Z,18.84
2022-12-25T01:14:32.670Z,18.66
2022-12-25T01:17:02.054Z,18.91
2022-12-25T01:19:30.049Z,18.77
2022-12-25T01:21:58.140Z,18.78
2022-12-25T01:24:26.139Z,18.63
2022-12-25T01:26:55.008Z,18.94
2022-12-25T01:29:23.036Z,18.71
2022-12-25T01:31:51.002Z,18.95
2022-12-25T01:34:20.361Z,18.95
2022-12-25T01:36:48.440Z,18.69
2022-12-25T01:39:16.354Z,19.08
2022-12-25T01:41:45.365Z,18.71
2022-12-25T01:44:46.712Z,18.93
2022-12-25T01:47:16.090Z,18.91
2022-12-25T01:49:49.536Z,18.81
2022-12-25T01:52:24.157Z,19.09
2022-12-25T01:54:56.657Z,18.74
2022-12-25T01:57:28.324Z,18.85
2022-12-25T01:59:57.493Z,19.05
2022-12-25T02:02:26.162Z,18.67
2022-12-25T02:05:01.041Z,18.90
2022-12-25T02:07:30.841Z,18.65
2022-12-25T02:09:58.849Z,18.88
2022-12-25T02:12:29.349Z,18.94
2022-12-25T02:15:05.345Z,18.88
2022-12-25T02:17:39.915Z,18.87
2022-12-25T02:20:49.059Z,18.77
2022-12-25T02:23:40.670Z,18.80
2022-12-25T02:26:18.021Z,18.58
2022-12-25T02:28:57.514Z,18.69
2022-12-25T02:31:33.555Z,18.79
2022-12-25T02:34:10.669Z,18.85
2022-12-25T02:36:46.199Z,18.83
2022-12-25T02:39:38.396Z,18.67
2022-12-25T02:42:11.535Z,18.85
2022-12-25T02:45:01.993Z,18.64
2022-12-25T02:47:48.402Z,18.55
2022-12-25T02:50:35.169Z,18.68
2022-12-25T02:53:22.400Z,18.69
2022-12-25T02:56:09.239Z,18.73
2022-12-25T02:58:58.496Z,18.71
2022-12-25T03:01:49.847Z,18.88
2022-12-25T03:04:40.846Z,18.57
2022-12-25T03:07:12.621Z,18.78
2022-12-25T03:10:09.887Z,18.86
2022-12-25T03:12:47.344Z,18.82
2022-12-25T03:15:33.161Z,18.66
2022-12-25T03:18:05.685Z,18.90
2022-12-25T03:20:52.385Z,18.73
2022-12-25T03:23:41.253Z,18.97
2022-12-25T03:26:27.386Z,18.66
2022-12-25T03:28:55.465Z,18.76
2022-12-25T03:31:40.281Z,18.93
2022-12-25T03:34:50.131Z,19.16
2022-12-25T03:37:55.675Z,19.08
2022-12-25T03:40:50.132Z,18.63
2022-12-25T03:43:43.556Z,18.79
2022-12-25T03:46:34.089Z,19.23
2022-12-25T03:49:26.386Z,18.97
2022-12-25T03:52:17.667Z,19.13
2022-12-25T03:55:07.037Z,18.80
2022-12-25T03:57:53.300Z,18.82
2022-12-25T04:00:39.096Z,18.83
2022-12-25T04:03:24.519Z,18.85
2022-12-25T04:06:09.914Z,18.70
2022-12-25T04:08:56.641Z,18.76
2022-12-25T04:11:41.870Z,18.88
2022-12-25T04:14:26.367Z,18.99
2022-12-25T04:17:11.859Z,18.88
2022-12-25T04:19:57.288Z,18.85
2022-12-25T04:22:42.626Z,18.98
2022-12-25T04:25:29.710Z,19.20
2022-12-25T04:28:22.089Z,18.87
2022-12-25T04:31:07.627Z,19.16
2022-12-25T04:34:01.453Z,19.22
2022-12-25T04:36:29.560Z,18.94
2022-12-25T04:38:57.546Z,19.10
2022-12-25T04:41:26.971Z,18.95
2022-12-25T04:43:54.893Z,18.82
2022-12-25T04:46:23.014Z,19.03
2022-12-25T04:48:51.004Z,18.91
2022-12-25T04:51:21.018Z,18.73
2022-12-25T04:53:49.974Z,18.79
2022-12-25T04:56:18.717Z,18.90
2022-12-25T04:58:48.328Z,18.93
2022-12-25T05:01:17.176Z,19.14
2022-12-25T05:03:45.294Z,18.73
2022-12-25T05:06:14.140Z,18.80
2022-12-25T05:08:42.050Z,18.83
2022-12-25T05:11:11.976Z,19.10
2022-12-25T05:13:40.672Z,18.93
2022-12-25T05:16:13.015Z,19.11
2022-12-25T05:18:41.365Z,19.16
2022-12-25T05:21:10.661Z,18.82
2022-12-25T05:23:48.291Z,19.13
2022-12-25T05:26:17.518Z,19.17
2022-12-25T05:28:45.562Z,18.80
2022-12-25T05:31:15.175Z,19.28
2022-12-25T05:33:43.093Z,19.17
2022-12-25T05:36:13.505Z,18.90
2022-12-25T05:38:41.456Z,19.19
2022-12-25T05:41:09.858Z,19.19
2022-12-25T05:43:37.863Z,18.93
2022-12-25T05:46:07.552Z,19.24
2022-12-25T05:48:38.265Z,19.10
2022-12-25T05:51:07.590Z,19.19
2022-12-25T05:53:36.362Z,19.12
2022-12-25T05:56:05.255Z,19.02
2022-12-25T05:58:34.013Z,19.07
2022-12-25T06:01:02.268Z,19.02
2022-12-25T06:03:30.413Z,19.22
2022-12-25T06:05:59.910Z,18.86
2022-12-25T06:08:27.845Z,18.89
2022-12-25T06:10:55.917Z,18.90
2022-12-25T06:13:23.782Z,19.16
2022-12-25T06:15:51.929Z,18.93
2022-12-25T06:18:19.863Z,19.26
2022-12-25T06:20:47.914Z,19.28
2022-12-25T06:23:17.226Z,19.01
2022-12-25T06:25:45.214Z,19.23
2022-12-25T06:28:13.171Z,19.00
2022-12-25T06:30:41.113Z,19.03
2022-12-25T06:33:09.080Z,19.09
2022-12-25T06:35:40.311Z,19.21
2022-12-25T06:38:08.408Z,19.39
2022-12-25T06:40:37.830Z,19.30
2022-12-25T06:43:05.912Z,18.88
2022-12-25T06:45:36.097Z,19.04
2022-12-25T06:48:04.369Z,18.91
2022-12-25T06:50:32.294Z,19.10
2022-12-25T06:53:00.227Z,19.22
2022-12-25T06:55:28.573Z,19.18
2022-12-25T06:57:57.857Z,18.93
2022-12-25T07:00:25.846Z,19.18
2022-12-25T07:02:54.015Z,19.33
2022-12-25T07:05:22.062Z,19.03
2022-12-25T07:07:50.061Z,19.20
2022-12-25T07:10:18.173Z,19.27
2022-12-25T07:12:46.129Z,19.08
2022-12-25T07:15:15.588Z,19.45
2022-12-25T07:17:43.640Z,19.08
2022-12-25T07:20:11.849Z,19.55
2022-12-25T07:22:39.801Z,19.10
2022-12-25T07:25:08.527Z,19.04
2022-12-25T07:27:36.464Z,19.05
2022-12-25T07:30:04.991Z,19.22
2022-12-25T07:32:34.476Z,19.41
2022-12-25T07:35:02.436Z,19.07
2022-12-25T07:37:30.377Z,19.09
2022-12-25T07:39:58.494Z,18.93
2022-12-25T07:42:26.408Z,19.31
2022-12-25T07:44:55.626Z,19.23
2022-12-25T07:47:23.551Z,19.03
2022-12-25T07:49:52.910Z,19.07
2022-12-25T07:52:20.864Z,19.44
2022-12-25T07:54:48.954Z,19.16
2022-12-25T07:57:16.879Z,18.94
2022-12-25T07:59:44.942Z,19.13
2022-12-25T08:02:13.251Z,19.42
2022-12-25T08:04:41.242Z,19.00
2022-12-25T08:07:10.718Z,19.25
2022-12-25T08:09:38.747Z,19.10
2022-12-25T08:12:07.382Z,19.37
2022-12-25T08:14:35.306Z,19.10
2022-12-25T08:17:03.471Z,18.96
2022-12-25T08:19:31.536Z,19.29
2022-12-25T08:21:59.470Z,18.82
2022-12-25T08:24:28.815Z,19.06
2022-12-25T08:26:57.950Z,18.83
2022-12-25T08:29:26.001Z,19.23
2022-12-25T08:31:54.885Z,19.18
2022-12-25T08:34:22.846Z,19.06
2022-12-25T08:36:50.946Z,19.04
2022-12-25T08:39:19.030Z,18.91
2022-12-25T08:41:48.352Z,18.79
2022-12-25T08:44:16.285Z,19.29
2022-12-25T08:46:44.290Z,18.95
2022-12-25T08:49:12.386Z,18.89
2022-12-25T08:51:40.409Z,18.92
2022-12-25T08:54:08.478Z,19.27
2022-12-25T08:56:36.632Z,19.33
2022-12-25T08:59:06.064Z,19.39
2022-12-25T09:01:34.206Z,19.07
2022-12-25T09:04:02.321Z,19.06
2022-12-25T09:06:30.382Z,19.16
2022-12-25T09:08:58.371Z,19.52
2022-12-25T09:11:26.495Z,19.54
2022-12-25T09:13:54.415Z,19.33
2022-12-25T09:16:24.395Z,19.38
2022-12-25T09:18:52.426Z,19.42
2022-12-25T09:21:20.739Z,19.27
2022-12-25T09:23:48.874Z,19.63
2022-12-25T09:26:19.086Z,19.44
2022-12-25T09:28:51.799Z,19.27
2022-12-25T09:31:21.187Z,19.30
2022-12-25T09:33:50.966Z,19.43
2022-12-25T09:36:21.488Z,19.37
2022-12-25T09:38:49.453Z,19.20
2022-12-25T09:41:21.055Z,19.36
2022-12-25T09:43:52.545Z,19.69
2022-12-25T09:46:23.229Z,19.35
2022-12-25T09:49:03.090Z,19.35
2022-12-25T09:51:35.609Z,19.67
2022-12-25T09:54:07.985Z,19.32
2022-12-25T09:56:36.117Z,19.44
2022-12-25T09:59:04.589Z,19.31
2022-12-25T10:01:39.386Z,19.60
2022-12-25T10:04:23.875Z,19.32
2022-12-25T10:07:04.794Z,19.62
2022-12-25T10:09:49.882Z,19.34
2022-12-25T10:12:30.854Z,19.51
2022-12-25T10:15:12.799Z,19.24
2022-12-25T10:17:55.566Z,19.17
2022-12-25T10:20:41.490Z,19.59
2022-12-25T10:23:15.619Z,19.28
2022-12-25T10:25:46.054Z,19.18
2022-12-25T10:28:16.483Z,19.59
2022-12-25T10:30:46.037Z,19.24
2022-12-25T10:33:17.386Z,19.68
2022-12-25T10:35:47.193Z,19.69
2022-12-25T10:38:17.992Z,19.28
2022-12-25T10:41:01.219Z,19.53
2022-12-25T10:43:36.632Z,19.48
2022-12-25T10:46:12.863Z,19.51
2022-12-25T10:48:44.532Z,19.41
2022-12-25T10:51:14.412Z,19.43
2022-12-25T10:53:44.035Z,19.32
2022-12-25T10:56:18.519Z,19.31
2022-12-25T10:58:46.911Z,19.28
2022-12-25T11:01:15.468Z,19.28
2022-12-25T11:03:46.898Z,19.39
2022-12-25T11:06:28.529Z,19.22
2022-12-25T11:08:58.592Z,19.24
2022-12-25T11:11:27.898Z,19.54
2022-12-25T11:13:58.668Z,19.38
2022-12-25T11:16:30.283Z,19.17
2022-12-25T11:18:59.376Z,19.24
2022-12-25T11:21:30.729Z,19.56
2022-12-25T11:24:00.693Z,19.15
2022-12-25T11:26:30.386Z,19.26
2022-12-25T11:28:59.618Z,19.36
2022-12-25T11:31:37.133Z,19.45
2022-12-25T11:34:08.921Z,19.26
2022-12-25T11:36:45.492Z,19.25
2022-12-25T11:39:23.081Z,19.37
2022-12-25T11:41:54.953Z,19.50
2022-12-25T11:44:37.653Z,19.55
2022-12-25T11:47:13.000Z,19.26
2022-12-25T11:49:49.872Z,19.59
2022-12-25T11:52:22.053Z,19.66
2022-12-25T11:54:58.006Z,19.45
2022-12-25T11:57:30.328Z,19.29
2022-12-25T12:00:06.735Z,19.41
2022-12-25T12:02:40.198Z,19.42
2022-12-25T12:05:19.030Z,19.43
2022-12-25T12:07:58.367Z,19.46
2022-12-25T12:10:38.435Z,19.54
2022-12-25T12:13:33.375Z,19.51
2022-12-25T12:16:01.586Z,19.36
2022-12-25T12:18:34.429Z,19.23
2022-12-25T12:21:05.695Z,19.28
2022-12-25T12:23:38.389Z,19.43
2022-12-25T12:26:06.838Z,19.45
2022-12-25T12:28:46.060Z,19.28
2022-12-25T12:31:14.923Z,19.41
2022-12-25T12:33:49.740Z,18.96
2022-12-25T12:36:25.142Z,19.38
2022-12-25T12:39:06.068Z,19.38
2022-12-25T12:41:47.037Z,19.32
2022-12-25T12:44:17.632Z,19.41
2022-12-25T12:46:53.387Z,19.40
2022-12-25T12:49:27.358Z,19.29
2022-12-25T12:52:05.437Z,19.10
2022-12-25T12:54:49.874Z,19.03
2022-12-25T12:57:25.324Z,19.20
2022-12-25T12:59:53.494Z,19.32
2022-12-25T13:02:52.985Z,18.93
2022-12-25T13:05:34.225Z,18.92
2022-12-25T13:08:13.923Z,19.36
2022-12-25T13:10:48.256Z,19.12
2022-12-25T13:13:21.427Z,19.21
2022-12-25T13:15:51.803Z,18.96
2022-12-25T13:18:20.490Z,19.25
2022-12-25T13:20:55.096Z,18.96
2022-12-25T13:23:28.295Z,18.98
2022-12-25T13:25:59.451Z,19.27
2022-12-25T13:28:29.349Z,19.09
2022-12-25T13:31:07.683Z,19.21
2022-12-25T13:33:35.993Z,19.30
2022-12-25T13:36:04.266Z,19.27
2022-12-25T13:38:32.530Z,19.13
2022-12-25T13:41:24.913Z,19.20
2022-12-25T13:43:54.115Z,19.36
2022-12-25T13:46:27.264Z,19.02
2022-12-25T13:49:00.281Z,19.36
2022-12-25T13:51:29.262Z,19.25
2022-12-25T13:54:07.005Z,19.10
2022-12-25T13:56:36.497Z,19.48
2022-12-25T13:59:04.911Z,19.11
2022-12-25T14:01:32.984Z,19.24
2022-12-25T14:04:01.444Z,19.17
2022-12-25T14:06:31.142Z,19.27
2022-12-25T14:09:00.651Z,19.05
2022-12-25T14:11:30.714Z,19.08
2022-12-25T14:14:04.899Z,19.39
2022-12-25T14:16:33.524Z,19.39
2022-12-25T14:19:03.569Z,19.13
2022-12-25T14:21:34.753Z,19.39
2022-12-25T14:24:02.971Z,19.03
2022-12-25T14:26:33.744Z,19.46
2022-12-25T14:29:16.821Z,19.44
2022-12-25T14:31:46.880Z,19.29
2022-12-25T14:34:19.652Z,19.06
2022-12-25T14:36:48.884Z,19.15
2022-12-25T14:39:32.675Z,19.41
2022-12-25T14:42:03.058Z,19.21
2022-12-25T14:44:38.808Z,19.50
2022-12-25T14:47:14.900Z,19.23
2022-12-25T14:49:43.589Z,19.74
2022-12-25T14:52:18.459Z,19.53
2022-12-25T14:54:49.006Z,19.96
2022-12-25T14:57:28.212Z,20.24
2022-12-25T15:00:01.566Z,20.28
2022-12-25T15:02:45.616Z,20.56
2022-12-25T15:05:32.602Z,20.16
2022-12-25T15:08:22.651Z,20.18
2022-12-25T15:11:01.284Z,20.52
2022-12-25T15:13:31.428Z,20.82
2022-12-25T15:16:04.691Z,20.86
2022-12-25T15:18:37.397Z,21.20
2022-12-25T15:21:05.785Z,21.20
2022-12-25T15:23:33.863Z,21.73
2022-12-25T15:26:01.821Z,21.89
2022-12-25T15:28:29.732Z,22.08
2022-12-25T15:30:57.749Z,22.48
2022-12-25T15:33:27.059Z,23.18
2022-12-25T15:35:55.108Z,23.83
2022-12-25T15:38:23.121Z,23.84
2022-12-25T15:40:51.045Z,24.23
2022-12-25T15:43:39.884Z,24.17
2022-12-25T15:46:07.055Z,24.19
2022-12-25T15:48:36.370Z,24.19
2022-12-25T15:51:04.385Z,24.30
2022-12-25T15:53:32.430Z,24.14
2022-12-25T15:56:00.468Z,24.40
2022-12-25T15:58:28.479Z,24.29
2022-12-25T16:00:56.382Z,24.06
2022-12-25T16:03:24.314Z,24.02
2022-12-25T16:05:54.688Z,23.94
2022-12-25T16:08:22.927Z,23.73
2022-12-25T16:10:51.077Z,23.62
2022-12-25T16:13:18.973Z,23.53
2022-12-25T16:15:47.167Z,23.60
2022-12-25T16:18:15.340Z,23.76
2022-12-25T16:20:43.458Z,23.61
2022-12-25T16:23:12.754Z,23.32
2022-12-25T16:25:40.906Z,23.55
2022-12-25T16:28:10.376Z,23.40
2022-12-25T16:30:38.885Z,23.29
2022-12-25T16:33:07.771Z,23.52
2022-12-25T16:35:36.005Z,23.46
2022-12-25T16:38:04.285Z,23.45
2022-12-25T16:40:33.608Z,23.35
2022-12-25T16:43:01.581Z,23.42
2022-12-25T16:45:29.600Z,23.13
2022-12-25T16:47:57.641Z,22.98
2022-12-25T16:50:25.751Z,22.93
2022-12-25T16:52:53.702Z,23.02
2022-12-25T16:55:26.277Z,22.98
2022-12-25T16:57:58.881Z,22.72
2022-12-25T17:00:27.047Z,22.80
2022-12-25T17:02:56.213Z,22.66
2022-12-25T17:05:24.975Z,22.83
2022-12-25T17:07:53.084Z,22.69
2022-12-25T17:10:21.451Z,23.05
2022-12-25T17:12:49.552Z,22.75
2022-12-25T17:15:19.058Z,22.71
2022-12-25T17:17:47.063Z,22.71
2022-12-25T17:20:15.035Z,22.71
2022-12-25T17:22:42.892Z,22.76
2022-12-25T17:25:11.093Z,22.77
2022-12-25T17:27:39.071Z,22.80
2022-12-25T17:30:09.090Z,22.52
2022-12-25T17:32:38.580Z,22.56
2022-12-25T17:35:07.188Z,22.39
2022-12-25T17:37:35.359Z,22.55
2022-12-25T17:40:03.500Z,22.45
2022-12-25T17:42:31.435Z,22.37
2022-12-25T17:44:59.496Z,22.38
2022-12-25T17:47:27.522Z,22.38
2022-12-25T17:49:56.987Z,22.39
2022-12-25T17:52:25.017Z,22.20
2022-12-25T17:54:53.061Z,22.21
2022-12-25T17:57:21.115Z,22.23
2022-12-25T17:59:50.138Z,22.14
2022-12-25T18:02:18.699Z,22.14
2022-12-25T18:04:48.102Z,22.22
2022-12-25T18:07:17.584Z,22.20
2022-12-25T18:09:45.647Z,22.21
2022-12-25T18:12:13.685Z,22.12
2022-12-25T18:14:41.633Z,22.31
2022-12-25T18:17:09.902Z,22.28
2022-12-25T18:22:05.630Z,22.22
2022-12-25T18:24:34.974Z,22.23
2022-12-25T18:27:03.039Z,22.29
2022-12-25T18:29:30.971Z,22.28
2022-12-25T18:31:58.931Z,22.34
2022-12-25T18:34:27.376Z,22.11
2022-12-25T18:37:02.646Z,22.24
2022-12-25T18:39:30.937Z,22.14
2022-12-25T18:42:18.639Z,22.08
2022-12-25T18:44:46.746Z,21.99
2022-12-25T18:47:14.713Z,22.05
2022-12-25T18:49:42.828Z,22.06
2022-12-25T18:52:48.825Z,21.92
2022-12-25T18:54:58.856Z,22.28
2022-12-25T18:57:28.190Z,22.25
2022-12-25T18:59:56.155Z,22.07
2022-12-25T19:02:24.240Z,21.90
2022-12-25T19:04:52.535Z,21.91
2022-12-25T19:07:22.601Z,22.32
2022-12-25T19:09:51.373Z,21.76
2022-12-25T19:12:19.463Z,21.89
2022-12-25T19:14:48.738Z,22.03
2022-12-25T19:17:16.872Z,22.00
2022-12-25T19:19:45.209Z,22.01
2022-12-25T19:22:13.679Z,21.81
2022-12-25T19:24:41.749Z,22.01
2022-12-25T19:27:09.736Z,21.97
2022-12-25T19:29:37.685Z,22.07
2022-12-25T19:32:07.354Z,21.89
2022-12-25T19:34:35.459Z,21.92
2022-12-25T19:37:03.873Z,22.00
2022-12-25T19:39:31.888Z,21.93
2022-12-25T19:41:59.879Z,21.97
2022-12-25T19:44:27.845Z,21.71
2022-12-25T19:46:55.886Z,21.96
2022-12-25T19:49:25.357Z,21.81
2022-12-25T19:51:53.309Z,21.95
2022-12-25T19:54:21.425Z,21.93
2022-12-25T19:56:49.807Z,21.85
2022-12-25T19:59:17.839Z,21.88
2022-12-25T20:01:45.934Z,21.67
2022-12-25T20:04:14.347Z,21.71
2022-12-25T20:06:43.793Z,21.86
2022-12-25T20:09:15.243Z,21.81
2022-12-25T20:11:43.981Z,21.77
2022-12-25T20:14:13.707Z,21.56
2022-12-25T20:16:42.058Z,21.56
2022-12-25T20:19:12.720Z,21.72
2022-12-25T20:21:40.728Z,21.72
2022-12-25T20:24:11.277Z,21.53
2022-12-25T20:26:40.268Z,21.34
2022-12-25T20:29:08.616Z,21.50
2022-12-25T20:31:37.154Z,21.62
2022-12-25T20:34:08.726Z,21.47
2022-12-25T20:36:37.954Z,21.60
2022-12-25T20:39:09.651Z,21.37
2022-12-25T20:41:40.616Z,21.39
2022-12-25T20:44:10.035Z,21.32
2022-12-25T20:46:38.476Z,21.46
2022-12-25T20:49:06.700Z,21.57
2022-12-25T20:51:34.618Z,21.53
2022-12-25T20:54:07.381Z,21.34
2022-12-25T20:56:35.610Z,21.39
2022-12-25T20:59:04.972Z,21.13
2022-12-25T21:01:33.129Z,21.62
2022-12-25T21:04:01.286Z,21.41
2022-12-25T21:06:29.240Z,21.27
2022-12-25T21:08:57.507Z,21.40
2022-12-25T21:11:25.527Z,21.43
2022-12-25T21:13:53.655Z,21.54
2022-12-25T21:16:23.830Z,21.74
2022-12-25T21:18:53.685Z,22.01
2022-12-25T21:21:22.249Z,21.50
2022-12-25T21:23:50.409Z,21.74
2022-12-25T21:26:20.333Z,21.60
2022-12-25T21:28:48.865Z,21.91
2022-12-25T21:31:17.532Z,22.21
2022-12-25T21:33:52.076Z,22.28
2022-12-25T21:36:24.427Z,22.25
2022-12-25T21:38:58.455Z,22.03
2022-12-25T21:41:27.461Z,21.94
2022-12-25T21:43:56.420Z,21.76
2022-12-25T21:46:24.942Z,21.45
2022-12-25T21:48:55.163Z,21.27
2022-12-25T21:51:42.835Z,21.56
2022-12-25T21:54:11.813Z,20.97
2022-12-25T21:56:44.892Z,21.14
2022-12-25T21:59:16.153Z,20.69
2022-12-25T22:01:45.224Z,20.59
2022-12-25T22:04:16.400Z,20.33
2022-12-25T22:07:03.440Z,20.72
2022-12-25T22:09:31.981Z,20.30
2022-12-25T22:12:17.980Z,20.11
2022-12-25T22:14:55.213Z,20.35
2022-12-25T22:17:43.376Z,20.35
2022-12-25T22:20:16.899Z,20.41
2022-12-25T22:22:45.285Z,19.83
2022-12-25T22:25:13.875Z,19.81
2022-12-25T22:27:43.774Z,20.11
2022-12-25T22:30:14.415Z,19.66
2022-12-25T22:32:42.456Z,20.00
2022-12-25T22:35:13.172Z,19.88
2022-12-25T22:37:41.877Z,19.43
2022-12-25T22:40:12.538Z,19.47
2022-12-25T22:42:41.737Z,19.47
2022-12-25T22:45:10.980Z,19.85
2022-12-25T22:47:39.252Z,19.34
2022-12-25T22:50:08.200Z,19.33
2022-12-25T22:52:38.058Z,19.45
2022-12-25T22:55:08.201Z,19.32
2022-12-25T22:57:36.481Z,19.67
2022-12-25T23:00:05.185Z,19.25
2022-12-25T23:02:35.161Z,19.46
2022-12-25T23:05:03.635Z,19.51
2022-12-25T23:07:31.676Z,19.51
2022-12-25T23:10:01.199Z,19.12
2022-12-25T23:12:46.594Z,19.36
2022-12-25T23:15:14.626Z,19.32
2022-12-25T23:18:00.048Z,19.50
2022-12-25T23:20:45.452Z,19.22
2022-12-25T23:23:34.159Z,19.23
2022-12-25T23:26:09.426Z,19.40
2022-12-25T23:28:55.157Z,19.42
2022-12-25T23:31:26.028Z,19.73
2022-12-25T23:33:54.169Z,19.68
2022-12-25T23:36:22.259Z,19.24
2022-12-25T23:38:51.536Z,19.29
2022-12-25T23:41:21.047Z,19.79
2022-12-25T23:43:49.093Z,20.05
2022-12-25T23:46:17.151Z,19.45
2022-12-25T23:48:45.336Z,19.49
2022-12-25T23:51:13.465Z,19.24
2022-12-25T23:53:41.452Z,19.16
2022-12-25T23:56:10.588Z,19.51
2022-12-25T23:58:40.809Z,19.54
